sensor_id;sensor_type;location;lat;lon;timestamp;temperature;humidity
11848;DHT22;5983;49.966;8.052;2023-12-14T00:00:15;5.00;99.90
11848;DHT22;5983;49.966;8.052;2023-12-14T00:02:43;5.00;99.90
11848;DHT22;5983;49.966;8.052;2023-12-14T00:05:10;5.00;99.90
11848;DHT22;5983;49.966;8.052;2023-12-14T00:07:38;5.00;99.90
11848;DHT22;5983;49.966;8.052;2023-12-14T00:10:05;4.90;99.90
11848;DHT22;5983;49.966;8.052;2023-12-14T00:12:33;4.80;99.90
11848;DHT22;5983;49.966;8.052;2023-12-14T00:14:59;4.80;99.90
11848;DHT22;5983;49.966;8.052;2023-12-14T00:17:26;4.80;99.90
11848;DHT22;5983;49.966;8.052;2023-12-14T00:19:53;4.70;99.90
11848;DHT22;5983;49.966;8.052;2023-12-14T00:22:20;4.70;99.90
11848;DHT22;5983;49.966;8.052;2023-12-14T00:24:48;4.70;99.90
11848;DHT22;5983;49.966;8.052;2023-12-14T00:27:15;4.60;99.90
11848;DHT22;5983;49.966;8.052;2023-12-14T00:29:42;4.60;99.90
11848;DHT22;5983;49.966;8.052;2023-12-14T00:32:09;4.60;99.90
11848;DHT22;5983;49.966;8.052;2023-12-14T00:34:35;4.60;99.90
11848;DHT22;5983;49.966;8.052;2023-12-14T00:37:02;4.60;99.90
11848;DHT22;5983;49.966;8.052;2023-12-14T00:39:29;4.50;99.90
11848;DHT22;5983;49.966;8.052;2023-12-14T00:41:57;4.50;99.90
11848;DHT22;5983;49.966;8.052;2023-12-14T00:44:24;4.50;99.90
11848;DHT22;5983;49.966;8.052;2023-12-14T00:46:51;4.60;99.90
11848;DHT22;5983;49.966;8.052;2023-12-14T00:49:18;4.60;99.90
11848;DHT22;5983;49.966;8.052;2023-12-14T00:51:44;4.60;99.90
11848;DHT22;5983;49.966;8.052;2023-12-14T00:54:11;4.60;99.90
11848;DHT22;5983;49.966;8.052;2023-12-14T00:56:38;4.60;99.90
11848;DHT22;5983;49.966;8.052;2023-12-14T00:59:06;4.60;99.90
11848;DHT22;5983;49.966;8.052;2023-12-14T01:01:33;4.70;99.90
11848;DHT22;5983;49.966;8.052;2023-12-14T01:04:00;4.70;99.90
11848;DHT22;5983;49.966;8.052;2023-12-14T01:06:27;4.70;99.90
11848;DHT22;5983;49.966;8.052;2023-12-14T01:08:54;4.70;99.90
11848;DHT22;5983;49.966;8.052;2023-12-14T01:11:20;4.70;99.90
11848;DHT22;5983;49.966;8.052;2023-12-14T01:13:47;4.60;99.90
11848;DHT22;5983;49.966;8.052;2023-12-14T01:16:15;4.60;99.90
11848;DHT22;5983;49.966;8.052;2023-12-14T01:18:42;4.60;99.90
11848;DHT22;5983;49.966;8.052;2023-12-14T01:21:09;4.60;99.90
11848;DHT22;5983;49.966;8.052;2023-12-14T01:23:36;4.60;99.90
11848;DHT22;5983;49.966;8.052;2023-12-14T01:26:04;4.70;99.90
11848;DHT22;5983;49.966;8.052;2023-12-14T01:28:31;4.70;99.90
11848;DHT22;5983;49.966;8.052;2023-12-14T01:30:58;4.60;99.90
11848;DHT22;5983;49.966;8.052;2023-12-14T01:33:26;4.60;99.90
11848;DHT22;5983;49.966;8.052;2023-12-14T01:35:53;4.60;99.90
11848;DHT22;5983;49.966;8.052;2023-12-14T01:38:19;4.60;99.90
11848;DHT22;5983;49.966;8.052;2023-12-14T01:40:46;4.50;99.90
11848;DHT22;5983;49.966;8.052;2023-12-14T01:43:13;4.50;99.90
11848;DHT22;5983;49.966;8.052;2023-12-14T01:45:40;4.50;99.90
11848;DHT22;5983;49.966;8.052;2023-12-14T01:48:06;4.50;99.90
11848;DHT22;5983;49.966;8.052;2023-12-14T01:50:34;4.40;99.90
11848;DHT22;5983;49.966;8.052;2023-12-14T01:53:01;4.40;99.90
11848;DHT22;5983;49.966;8.052;2023-12-14T01:55:28;4.30;99.90
11848;DHT22;5983;49.966;8.052;2023-12-14T01:57:55;4.30;99.90
11848;DHT22;5983;49.966;8.052;2023-12-14T02:00:23;4.20;99.90
11848;DHT22;5983;49.966;8.052;2023-12-14T02:02:56;4.20;99.90
11848;DHT22;5983;49.966;8.052;2023-12-14T02:05:22;4.20;99.90
11848;DHT22;5983;49.966;8.052;2023-12-14T02:07:51;4.20;99.90
11848;DHT22;5983;49.966;8.052;2023-12-14T02:10:17;4.10;99.90
11848;DHT22;5983;49.966;8.052;2023-12-14T02:12:44;4.10;99.90
11848;DHT22;5983;49.966;8.052;2023-12-14T02:15:11;4.10;99.90
11848;DHT22;5983;49.966;8.052;2023-12-14T02:17:38;4.10;99.90
11848;DHT22;5983;49.966;8.052;2023-12-14T02:20:05;4.00;99.90
11848;DHT22;5983;49.966;8.052;2023-12-14T02:22:35;4.10;99.90
11848;DHT22;5983;49.966;8.052;2023-12-14T02:25:02;4.10;99.90
11848;DHT22;5983;49.966;8.052;2023-12-14T02:27:30;4.10;99.90
11848;DHT22;5983;49.966;8.052;2023-12-14T02:29:57;4.10;99.90
11848;DHT22;5983;49.966;8.052;2023-12-14T02:32:24;4.10;99.90
11848;DHT22;5983;49.966;8.052;2023-12-14T02:34:50;4.20;99.90
11848;DHT22;5983;49.966;8.052;2023-12-14T02:37:17;4.20;99.90
11848;DHT22;5983;49.966;8.052;2023-12-14T02:39:45;4.30;99.90
11848;DHT22;5983;49.966;8.052;2023-12-14T02:42:12;4.30;99.90
11848;DHT22;5983;49.966;8.052;2023-12-14T02:44:40;4.30;99.90
11848;DHT22;5983;49.966;8.052;2023-12-14T02:47:06;4.40;99.90
11848;DHT22;5983;49.966;8.052;2023-12-14T02:49:33;4.40;99.90
11848;DHT22;5983;49.966;8.052;2023-12-14T02:52:00;4.50;99.90
11848;DHT22;5983;49.966;8.052;2023-12-14T02:54:27;4.60;99.90
11848;DHT22;5983;49.966;8.052;2023-12-14T02:56:55;4.60;99.90
11848;DHT22;5983;49.966;8.052;2023-12-14T02:59:22;4.60;99.90
11848;DHT22;5983;49.966;8.052;2023-12-14T03:01:48;4.60;99.90
11848;DHT22;5983;49.966;8.052;2023-12-14T03:04:15;4.60;99.90
11848;DHT22;5983;49.966;8.052;2023-12-14T03:06:42;4.70;99.90
11848;DHT22;5983;49.966;8.052;2023-12-14T03:09:09;4.70;99.90
11848;DHT22;5983;49.966;8.052;2023-12-14T03:11:36;4.70;99.90
11848;DHT22;5983;49.966;8.052;2023-12-14T03:14:04;4.70;99.90
11848;DHT22;5983;49.966;8.052;2023-12-14T03:16:31;4.70;99.90
11848;DHT22;5983;49.966;8.052;2023-12-14T03:18:57;4.70;99.90
11848;DHT22;5983;49.966;8.052;2023-12-14T03:21:24;4.70;99.90
11848;DHT22;5983;49.966;8.052;2023-12-14T03:23:51;4.80;99.90
11848;DHT22;5983;49.966;8.052;2023-12-14T03:26:18;4.80;99.90
11848;DHT22;5983;49.966;8.052;2023-12-14T03:28:45;4.80;99.90
11848;DHT22;5983;49.966;8.052;2023-12-14T03:31:13;4.80;99.90
11848;DHT22;5983;49.966;8.052;2023-12-14T03:33:40;4.90;99.90
11848;DHT22;5983;49.966;8.052;2023-12-14T03:36:08;4.90;99.90
11848;DHT22;5983;49.966;8.052;2023-12-14T03:38:35;4.90;99.90
11848;DHT22;5983;49.966;8.052;2023-12-14T03:41:02;4.90;99.90
11848;DHT22;5983;49.966;8.052;2023-12-14T03:43:29;4.90;99.90
11848;DHT22;5983;49.966;8.052;2023-12-14T03:45:55;5.00;99.90
11848;DHT22;5983;49.966;8.052;2023-12-14T03:48:23;5.00;99.90
11848;DHT22;5983;49.966;8.052;2023-12-14T03:50:50;5.00;99.90
11848;DHT22;5983;49.966;8.052;2023-12-14T03:53:17;5.00;99.90
11848;DHT22;5983;49.966;8.052;2023-12-14T03:55:45;5.00;99.90
11848;DHT22;5983;49.966;8.052;2023-12-14T03:58:12;5.00;99.90
11848;DHT22;5983;49.966;8.052;2023-12-14T04:00:39;5.10;99.90
11848;DHT22;5983;49.966;8.052;2023-12-14T04:03:05;5.10;99.90
11848;DHT22;5983;49.966;8.052;2023-12-14T04:05:34;5.10;99.90
11848;DHT22;5983;49.966;8.052;2023-12-14T04:08:02;5.10;99.90
11848;DHT22;5983;49.966;8.052;2023-12-14T04:10:28;5.10;99.90
11848;DHT22;5983;49.966;8.052;2023-12-14T04:12:55;5.10;99.90
11848;DHT22;5983;49.966;8.052;2023-12-14T04:15:22;5.20;99.90
11848;DHT22;5983;49.966;8.052;2023-12-14T04:17:49;5.20;99.90
11848;DHT22;5983;49.966;8.052;2023-12-14T04:20:16;5.20;99.90
11848;DHT22;5983;49.966;8.052;2023-12-14T04:22:44;5.20;99.90
11848;DHT22;5983;49.966;8.052;2023-12-14T04:25:11;5.20;99.90
11848;DHT22;5983;49.966;8.052;2023-12-14T04:27:38;5.20;99.90
11848;DHT22;5983;49.966;8.052;2023-12-14T04:30:05;5.30;99.90
11848;DHT22;5983;49.966;8.052;2023-12-14T04:32:35;5.30;99.90
11848;DHT22;5983;49.966;8.052;2023-12-14T04:35:02;5.30;99.90
11848;DHT22;5983;49.966;8.052;2023-12-14T04:37:30;5.40;99.90
11848;DHT22;5983;49.966;8.052;2023-12-14T04:39:59;5.40;99.90
11848;DHT22;5983;49.966;8.052;2023-12-14T04:42:26;5.40;99.90
11848;DHT22;5983;49.966;8.052;2023-12-14T04:44:53;5.50;99.90
11848;DHT22;5983;49.966;8.052;2023-12-14T04:47:20;5.50;99.90
11848;DHT22;5983;49.966;8.052;2023-12-14T04:49:46;5.50;99.90
11848;DHT22;5983;49.966;8.052;2023-12-14T04:52:13;5.60;99.90
11848;DHT22;5983;49.966;8.052;2023-12-14T04:54:40;5.60;99.90
11848;DHT22;5983;49.966;8.052;2023-12-14T04:57:08;5.70;99.90
11848;DHT22;5983;49.966;8.052;2023-12-14T04:59:35;5.70;99.90
11848;DHT22;5983;49.966;8.052;2023-12-14T05:02:02;5.70;99.90
11848;DHT22;5983;49.966;8.052;2023-12-14T05:04:29;5.80;99.90
11848;DHT22;5983;49.966;8.052;2023-12-14T05:06:56;5.80;99.90
11848;DHT22;5983;49.966;8.052;2023-12-14T05:09:22;5.80;99.90
11848;DHT22;5983;49.966;8.052;2023-12-14T05:11:49;5.90;99.90
11848;DHT22;5983;49.966;8.052;2023-12-14T05:14:18;5.90;99.90
11848;DHT22;5983;49.966;8.052;2023-12-14T05:16:45;6.00;99.90
11848;DHT22;5983;49.966;8.052;2023-12-14T05:19:12;6.00;99.90
11848;DHT22;5983;49.966;8.052;2023-12-14T05:21:38;6.00;99.90
11848;DHT22;5983;49.966;8.052;2023-12-14T05:24:05;6.00;99.90
11848;DHT22;5983;49.966;8.052;2023-12-14T05:26:32;6.00;99.90
11848;DHT22;5983;49.966;8.052;2023-12-14T05:28:59;6.00;99.90
11848;DHT22;5983;49.966;8.052;2023-12-14T05:31:27;6.00;99.90
11848;DHT22;5983;49.966;8.052;2023-12-14T05:33:54;6.10;99.90
11848;DHT22;5983;49.966;8.052;2023-12-14T05:36:21;6.10;99.90
11848;DHT22;5983;49.966;8.052;2023-12-14T05:38:47;6.10;99.90
11848;DHT22;5983;49.966;8.052;2023-12-14T05:41:14;6.10;99.90
11848;DHT22;5983;49.966;8.052;2023-12-14T05:43:42;6.20;99.90
11848;DHT22;5983;49.966;8.052;2023-12-14T05:46:08;6.20;99.90
11848;DHT22;5983;49.966;8.052;2023-12-14T05:48:37;6.20;99.90
11848;DHT22;5983;49.966;8.052;2023-12-14T05:51:04;6.30;99.90
11848;DHT22;5983;49.966;8.052;2023-12-14T05:53:31;6.40;99.90
11848;DHT22;5983;49.966;8.052;2023-12-14T05:56:02;6.40;99.90
11848;DHT22;5983;49.966;8.052;2023-12-14T05:58:28;6.50;99.90
11848;DHT22;5983;49.966;8.052;2023-12-14T06:00:55;6.60;99.90
11848;DHT22;5983;49.966;8.052;2023-12-14T06:03:22;6.60;99.90
11848;DHT22;5983;49.966;8.052;2023-12-14T06:05:50;6.70;99.90
11848;DHT22;5983;49.966;8.052;2023-12-14T06:08:17;6.70;99.90
11848;DHT22;5983;49.966;8.052;2023-12-14T06:10:44;6.80;99.90
11848;DHT22;5983;49.966;8.052;2023-12-14T06:13:11;6.80;99.90
11848;DHT22;5983;49.966;8.052;2023-12-14T06:15:38;6.80;99.90
11848;DHT22;5983;49.966;8.052;2023-12-14T06:18:05;6.90;99.90
11848;DHT22;5983;49.966;8.052;2023-12-14T06:20:31;6.90;99.90
11848;DHT22;5983;49.966;8.052;2023-12-14T06:23:00;7.00;99.90
11848;DHT22;5983;49.966;8.052;2023-12-14T06:25:26;7.00;99.90
11848;DHT22;5983;49.966;8.052;2023-12-14T06:27:53;7.00;99.90
11848;DHT22;5983;49.966;8.052;2023-12-14T06:30:20;7.10;99.90
11848;DHT22;5983;49.966;8.052;2023-12-14T06:32:47;7.10;99.90
11848;DHT22;5983;49.966;8.052;2023-12-14T06:35:14;7.10;99.90
11848;DHT22;5983;49.966;8.052;2023-12-14T06:37:41;7.10;99.90
11848;DHT22;5983;49.966;8.052;2023-12-14T06:40:10;7.10;99.90
11848;DHT22;5983;49.966;8.052;2023-12-14T06:42:37;7.10;99.90
11848;DHT22;5983;49.966;8.052;2023-12-14T06:45:05;7.10;99.90
11848;DHT22;5983;49.966;8.052;2023-12-14T06:47:32;7.10;99.90
11848;DHT22;5983;49.966;8.052;2023-12-14T06:49:59;7.10;99.90
11848;DHT22;5983;49.966;8.052;2023-12-14T06:52:26;7.10;99.90
11848;DHT22;5983;49.966;8.052;2023-12-14T06:54:52;7.20;99.90
11848;DHT22;5983;49.966;8.052;2023-12-14T06:57:21;7.20;99.90
11848;DHT22;5983;49.966;8.052;2023-12-14T06:59:48;7.20;99.90
11848;DHT22;5983;49.966;8.052;2023-12-14T07:02:15;7.20;99.90
11848;DHT22;5983;49.966;8.052;2023-12-14T07:04:41;7.20;99.90
11848;DHT22;5983;49.966;8.052;2023-12-14T07:07:10;7.20;99.90
11848;DHT22;5983;49.966;8.052;2023-12-14T07:09:38;7.30;99.90
11848;DHT22;5983;49.966;8.052;2023-12-14T07:12:05;7.30;99.90
11848;DHT22;5983;49.966;8.052;2023-12-14T07:14:34;7.30;99.90
11848;DHT22;5983;49.966;8.052;2023-12-14T07:17:01;7.30;99.90
11848;DHT22;5983;49.966;8.052;2023-12-14T07:19:28;7.30;99.90
11848;DHT22;5983;49.966;8.052;2023-12-14T07:21:55;7.40;99.90
11848;DHT22;5983;49.966;8.052;2023-12-14T07:24:21;7.40;99.90
11848;DHT22;5983;49.966;8.052;2023-12-14T07:26:47;7.40;99.90
11848;DHT22;5983;49.966;8.052;2023-12-14T07:29:15;7.40;99.90
11848;DHT22;5983;49.966;8.052;2023-12-14T07:31:43;7.40;99.90
11848;DHT22;5983;49.966;8.052;2023-12-14T07:34:10;7.40;99.90
11848;DHT22;5983;49.966;8.052;2023-12-14T07:36:37;7.40;99.90
11848;DHT22;5983;49.966;8.052;2023-12-14T07:39:04;7.40;99.90
11848;DHT22;5983;49.966;8.052;2023-12-14T07:41:31;7.40;99.90
11848;DHT22;5983;49.966;8.052;2023-12-14T07:43:58;7.40;99.90
11848;DHT22;5983;49.966;8.052;2023-12-14T07:46:25;7.40;99.90
11848;DHT22;5983;49.966;8.052;2023-12-14T07:48:53;7.40;99.90
11848;DHT22;5983;49.966;8.052;2023-12-14T07:51:20;7.40;99.90
11848;DHT22;5983;49.966;8.052;2023-12-14T07:53:46;7.40;99.90
11848;DHT22;5983;49.966;8.052;2023-12-14T07:56:13;7.30;99.90
11848;DHT22;5983;49.966;8.052;2023-12-14T07:58:40;7.30;99.90
11848;DHT22;5983;49.966;8.052;2023-12-14T08:01:07;7.40;99.90
11848;DHT22;5983;49.966;8.052;2023-12-14T08:03:34;7.30;99.90
11848;DHT22;5983;49.966;8.052;2023-12-14T08:06:03;7.30;99.90
11848;DHT22;5983;49.966;8.052;2023-12-14T08:08:30;7.40;99.90
11848;DHT22;5983;49.966;8.052;2023-12-14T08:10:56;7.40;99.90
11848;DHT22;5983;49.966;8.052;2023-12-14T08:13:23;7.40;99.90
11848;DHT22;5983;49.966;8.052;2023-12-14T08:15:50;7.40;99.90
11848;DHT22;5983;49.966;8.052;2023-12-14T08:18:17;7.50;99.90
11848;DHT22;5983;49.966;8.052;2023-12-14T08:20:44;7.50;99.90
11848;DHT22;5983;49.966;8.052;2023-12-14T08:23:12;7.50;99.90
11848;DHT22;5983;49.966;8.052;2023-12-14T08:25:38;7.60;99.90
11848;DHT22;5983;49.966;8.052;2023-12-14T08:28:05;7.60;99.90
11848;DHT22;5983;49.966;8.052;2023-12-14T08:30:32;7.60;99.90
11848;DHT22;5983;49.966;8.052;2023-12-14T08:32:59;7.70;99.90
11848;DHT22;5983;49.966;8.052;2023-12-14T08:35:26;7.70;99.90
11848;DHT22;5983;49.966;8.052;2023-12-14T08:37:53;7.70;99.90
11848;DHT22;5983;49.966;8.052;2023-12-14T08:40:21;7.70;99.90
11848;DHT22;5983;49.966;8.052;2023-12-14T08:42:48;7.80;99.90
11848;DHT22;5983;49.966;8.052;2023-12-14T08:45:15;7.80;99.90
11848;DHT22;5983;49.966;8.052;2023-12-14T08:47:42;7.80;99.90
11848;DHT22;5983;49.966;8.052;2023-12-14T08:50:09;7.80;99.90
11848;DHT22;5983;49.966;8.052;2023-12-14T08:52:36;7.80;99.90
11848;DHT22;5983;49.966;8.052;2023-12-14T08:55:03;7.80;99.90
11848;DHT22;5983;49.966;8.052;2023-12-14T08:57:32;7.90;99.90
11848;DHT22;5983;49.966;8.052;2023-12-14T08:59:58;7.90;99.90
11848;DHT22;5983;49.966;8.052;2023-12-14T09:02:25;7.90;99.90
11848;DHT22;5983;49.966;8.052;2023-12-14T09:04:52;7.90;99.90
11848;DHT22;5983;49.966;8.052;2023-12-14T09:07:19;7.90;99.90
11848;DHT22;5983;49.966;8.052;2023-12-14T09:09:46;7.90;99.90
11848;DHT22;5983;49.966;8.052;2023-12-14T09:12:13;8.00;99.90
11848;DHT22;5983;49.966;8.052;2023-12-14T09:14:41;8.00;99.90
11848;DHT22;5983;49.966;8.052;2023-12-14T09:17:08;8.00;99.90
11848;DHT22;5983;49.966;8.052;2023-12-14T09:19:35;8.00;99.90
11848;DHT22;5983;49.966;8.052;2023-12-14T09:22:01;8.10;99.90
11848;DHT22;5983;49.966;8.052;2023-12-14T09:24:28;8.10;99.90
11848;DHT22;5983;49.966;8.052;2023-12-14T09:26:55;8.10;99.90
11848;DHT22;5983;49.966;8.052;2023-12-14T09:29:22;8.10;99.90
11848;DHT22;5983;49.966;8.052;2023-12-14T09:31:50;8.20;99.90
11848;DHT22;5983;49.966;8.052;2023-12-14T09:34:17;8.20;99.90
11848;DHT22;5983;49.966;8.052;2023-12-14T09:36:44;8.30;99.90
11848;DHT22;5983;49.966;8.052;2023-12-14T09:39:10;8.30;99.90
11848;DHT22;5983;49.966;8.052;2023-12-14T09:41:37;8.30;99.90
11848;DHT22;5983;49.966;8.052;2023-12-14T09:44:04;8.40;99.90
11848;DHT22;5983;49.966;8.052;2023-12-14T09:46:32;8.30;99.90
11848;DHT22;5983;49.966;8.052;2023-12-14T09:49:01;8.40;99.90
11848;DHT22;5983;49.966;8.052;2023-12-14T09:51:28;8.40;99.90
11848;DHT22;5983;49.966;8.052;2023-12-14T09:53:55;8.40;99.90
11848;DHT22;5983;49.966;8.052;2023-12-14T09:56:23;8.40;99.90
11848;DHT22;5983;49.966;8.052;2023-12-14T09:58:50;8.30;99.90
11848;DHT22;5983;49.966;8.052;2023-12-14T10:01:23;8.30;99.90
11848;DHT22;5983;49.966;8.052;2023-12-14T10:03:51;8.30;99.90
11848;DHT22;5983;49.966;8.052;2023-12-14T10:06:35;8.30;99.90
11848;DHT22;5983;49.966;8.052;2023-12-14T10:09:02;8.30;99.90
11848;DHT22;5983;49.966;8.052;2023-12-14T10:11:29;8.30;99.90
11848;DHT22;5983;49.966;8.052;2023-12-14T10:13:56;8.30;99.90
11848;DHT22;5983;49.966;8.052;2023-12-14T10:16:27;8.20;99.90
11848;DHT22;5983;49.966;8.052;2023-12-14T10:18:55;8.20;99.90
11848;DHT22;5983;49.966;8.052;2023-12-14T10:21:24;8.20;99.90
11848;DHT22;5983;49.966;8.052;2023-12-14T10:23:52;8.20;99.90
11848;DHT22;5983;49.966;8.052;2023-12-14T10:26:21;8.20;99.90
11848;DHT22;5983;49.966;8.052;2023-12-14T10:28:49;8.20;99.90
11848;DHT22;5983;49.966;8.052;2023-12-14T10:31:16;8.20;99.90
11848;DHT22;5983;49.966;8.052;2023-12-14T10:33:43;8.30;99.90
11848;DHT22;5983;49.966;8.052;2023-12-14T10:36:11;8.30;99.90
11848;DHT22;5983;49.966;8.052;2023-12-14T10:38:40;8.30;99.90
11848;DHT22;5983;49.966;8.052;2023-12-14T10:41:09;8.30;99.90
11848;DHT22;5983;49.966;8.052;2023-12-14T10:43:39;8.30;99.90
11848;DHT22;5983;49.966;8.052;2023-12-14T10:46:09;8.40;99.90
11848;DHT22;5983;49.966;8.052;2023-12-14T10:48:36;8.50;99.90
11848;DHT22;5983;49.966;8.052;2023-12-14T10:51:04;8.50;99.90
11848;DHT22;5983;49.966;8.052;2023-12-14T10:53:32;8.60;99.90
11848;DHT22;5983;49.966;8.052;2023-12-14T10:56:01;8.60;99.90
11848;DHT22;5983;49.966;8.052;2023-12-14T10:58:44;8.60;99.90
11848;DHT22;5983;49.966;8.052;2023-12-14T11:01:13;8.60;99.90
11848;DHT22;5983;49.966;8.052;2023-12-14T11:03:40;8.70;99.90
11848;DHT22;5983;49.966;8.052;2023-12-14T11:06:19;8.70;99.90
11848;DHT22;5983;49.966;8.052;2023-12-14T11:08:48;8.60;99.90
11848;DHT22;5983;49.966;8.052;2023-12-14T11:11:16;8.60;99.90
11848;DHT22;5983;49.966;8.052;2023-12-14T11:13:46;8.60;99.90
11848;DHT22;5983;49.966;8.052;2023-12-14T11:16:15;8.60;99.90
11848;DHT22;5983;49.966;8.052;2023-12-14T11:18:41;8.60;99.90
11848;DHT22;5983;49.966;8.052;2023-12-14T11:21:08;8.60;99.90
11848;DHT22;5983;49.966;8.052;2023-12-14T11:23:36;8.60;99.90
11848;DHT22;5983;49.966;8.052;2023-12-14T11:26:05;8.60;99.90
11848;DHT22;5983;49.966;8.052;2023-12-14T11:28:35;8.70;99.90
11848;DHT22;5983;49.966;8.052;2023-12-14T11:31:03;8.70;99.90
11848;DHT22;5983;49.966;8.052;2023-12-14T11:33:32;8.90;99.90
11848;DHT22;5983;49.966;8.052;2023-12-14T11:35:59;9.10;99.90
11848;DHT22;5983;49.966;8.052;2023-12-14T11:38:28;9.30;99.90
11848;DHT22;5983;49.966;8.052;2023-12-14T11:40:55;9.50;99.90
11848;DHT22;5983;49.966;8.052;2023-12-14T11:43:22;9.80;99.90
11848;DHT22;5983;49.966;8.052;2023-12-14T11:45:52;9.90;99.90
11848;DHT22;5983;49.966;8.052;2023-12-14T11:48:21;10.00;99.90
11848;DHT22;5983;49.966;8.052;2023-12-14T11:50:48;10.10;99.90
11848;DHT22;5983;49.966;8.052;2023-12-14T11:53:14;10.00;99.90
11848;DHT22;5983;49.966;8.052;2023-12-14T11:55:42;10.00;99.90
11848;DHT22;5983;49.966;8.052;2023-12-14T11:58:11;9.90;99.90
11848;DHT22;5983;49.966;8.052;2023-12-14T12:00:40;9.90;99.90
11848;DHT22;5983;49.966;8.052;2023-12-14T12:03:08;9.80;99.90
11848;DHT22;5983;49.966;8.052;2023-12-14T12:05:37;9.70;99.90
11848;DHT22;5983;49.966;8.052;2023-12-14T12:08:05;9.60;99.90
11848;DHT22;5983;49.966;8.052;2023-12-14T12:10:32;9.50;99.90
11848;DHT22;5983;49.966;8.052;2023-12-14T12:13:00;9.40;99.90
11848;DHT22;5983;49.966;8.052;2023-12-14T12:15:28;9.30;99.90
11848;DHT22;5983;49.966;8.052;2023-12-14T12:17:56;9.30;99.90
11848;DHT22;5983;49.966;8.052;2023-12-14T12:20:24;9.30;99.90
11848;DHT22;5983;49.966;8.052;2023-12-14T12:22:52;9.30;99.90
11848;DHT22;5983;49.966;8.052;2023-12-14T12:25:19;9.30;99.90
11848;DHT22;5983;49.966;8.052;2023-12-14T12:27:46;9.30;99.90
11848;DHT22;5983;49.966;8.052;2023-12-14T12:30:13;9.30;99.90
11848;DHT22;5983;49.966;8.052;2023-12-14T12:32:40;9.40;99.90
11848;DHT22;5983;49.966;8.052;2023-12-14T12:35:08;9.40;99.90
11848;DHT22;5983;49.966;8.052;2023-12-14T12:37:37;9.40;99.90
11848;DHT22;5983;49.966;8.052;2023-12-14T12:40:04;9.40;99.90
11848;DHT22;5983;49.966;8.052;2023-12-14T12:42:32;9.30;99.90
11848;DHT22;5983;49.966;8.052;2023-12-14T12:44:59;9.30;99.90
11848;DHT22;5983;49.966;8.052;2023-12-14T12:47:25;9.30;99.90
11848;DHT22;5983;49.966;8.052;2023-12-14T12:49:52;9.30;99.90
11848;DHT22;5983;49.966;8.052;2023-12-14T12:52:19;9.40;99.90
11848;DHT22;5983;49.966;8.052;2023-12-14T12:54:47;9.40;99.90
11848;DHT22;5983;49.966;8.052;2023-12-14T13:00:36;9.30;99.90
11848;DHT22;5983;49.966;8.052;2023-12-14T13:03:03;9.20;99.90
11848;DHT22;5983;49.966;8.052;2023-12-14T13:05:30;9.10;99.90
11848;DHT22;5983;49.966;8.052;2023-12-14T13:07:56;9.10;99.90
11848;DHT22;5983;49.966;8.052;2023-12-14T13:10:25;9.00;99.90
11848;DHT22;5983;49.966;8.052;2023-12-14T13:12:52;9.00;99.90
11848;DHT22;5983;49.966;8.052;2023-12-14T13:15:19;9.00;99.90
11848;DHT22;5983;49.966;8.052;2023-12-14T13:17:49;9.30;99.90
11848;DHT22;5983;49.966;8.052;2023-12-14T13:20:16;9.70;99.90
11848;DHT22;5983;49.966;8.052;2023-12-14T13:22:43;10.00;99.90
11848;DHT22;5983;49.966;8.052;2023-12-14T13:25:10;10.10;99.90
11848;DHT22;5983;49.966;8.052;2023-12-14T13:27:38;10.10;99.90
11848;DHT22;5983;49.966;8.052;2023-12-14T13:30:06;10.10;99.90
11848;DHT22;5983;49.966;8.052;2023-12-14T13:32:33;10.00;99.90
11848;DHT22;5983;49.966;8.052;2023-12-14T13:35:00;9.90;99.90
11848;DHT22;5983;49.966;8.052;2023-12-14T13:37:27;9.90;99.90
11848;DHT22;5983;49.966;8.052;2023-12-14T13:39:54;10.20;99.90
11848;DHT22;5983;49.966;8.052;2023-12-14T13:42:21;10.90;99.90
11848;DHT22;5983;49.966;8.052;2023-12-14T13:44:49;11.30;99.90
11848;DHT22;5983;49.966;8.052;2023-12-14T13:47:16;11.50;99.90
11848;DHT22;5983;49.966;8.052;2023-12-14T13:49:43;11.30;99.90
11848;DHT22;5983;49.966;8.052;2023-12-14T13:52:09;11.10;99.90
11848;DHT22;5983;49.966;8.052;2023-12-14T13:54:36;10.90;99.90
11848;DHT22;5983;49.966;8.052;2023-12-14T13:57:03;10.60;99.90
11848;DHT22;5983;49.966;8.052;2023-12-14T13:59:30;10.40;99.90
11848;DHT22;5983;49.966;8.052;2023-12-14T14:01:58;10.10;99.90
11848;DHT22;5983;49.966;8.052;2023-12-14T14:04:25;10.00;99.90
11848;DHT22;5983;49.966;8.052;2023-12-14T14:06:51;9.80;99.90
11848;DHT22;5983;49.966;8.052;2023-12-14T14:09:18;9.70;99.90
11848;DHT22;5983;49.966;8.052;2023-12-14T14:11:45;9.50;99.90
11848;DHT22;5983;49.966;8.052;2023-12-14T14:14:12;9.40;99.90
11848;DHT22;5983;49.966;8.052;2023-12-14T14:16:39;9.30;99.90
11848;DHT22;5983;49.966;8.052;2023-12-14T14:19:07;9.20;99.90
11848;DHT22;5983;49.966;8.052;2023-12-14T14:21:34;9.20;99.90
11848;DHT22;5983;49.966;8.052;2023-12-14T14:24:00;9.00;99.90
11848;DHT22;5983;49.966;8.052;2023-12-14T14:26:27;9.00;99.90
11848;DHT22;5983;49.966;8.052;2023-12-14T14:28:54;8.90;99.90
11848;DHT22;5983;49.966;8.052;2023-12-14T14:31:25;8.80;99.90
11848;DHT22;5983;49.966;8.052;2023-12-14T14:33:55;8.70;99.90
11848;DHT22;5983;49.966;8.052;2023-12-14T14:36:23;8.70;99.90
11848;DHT22;5983;49.966;8.052;2023-12-14T14:38:50;8.70;99.90
11848;DHT22;5983;49.966;8.052;2023-12-14T14:41:19;8.60;99.90
11848;DHT22;5983;49.966;8.052;2023-12-14T14:43:46;8.60;99.90
11848;DHT22;5983;49.966;8.052;2023-12-14T14:46:13;8.50;99.90
11848;DHT22;5983;49.966;8.052;2023-12-14T14:48:40;8.50;99.90
11848;DHT22;5983;49.966;8.052;2023-12-14T14:51:06;8.40;99.90
11848;DHT22;5983;49.966;8.052;2023-12-14T14:53:35;8.40;99.90
11848;DHT22;5983;49.966;8.052;2023-12-14T14:56:02;8.30;99.90
11848;DHT22;5983;49.966;8.052;2023-12-14T14:58:30;8.20;99.90
11848;DHT22;5983;49.966;8.052;2023-12-14T15:00:56;8.20;99.90
11848;DHT22;5983;49.966;8.052;2023-12-14T15:03:23;8.10;99.90
11848;DHT22;5983;49.966;8.052;2023-12-14T15:08:30;8.00;99.90
11848;DHT22;5983;49.966;8.052;2023-12-14T15:10:58;8.00;99.90
11848;DHT22;5983;49.966;8.052;2023-12-14T15:13:25;8.00;99.90
11848;DHT22;5983;49.966;8.052;2023-12-14T15:15:53;8.00;99.90
11848;DHT22;5983;49.966;8.052;2023-12-14T15:18:21;7.90;99.90
11848;DHT22;5983;49.966;8.052;2023-12-14T15:20:47;7.90;99.90
11848;DHT22;5983;49.966;8.052;2023-12-14T15:23:16;7.90;99.90
11848;DHT22;5983;49.966;8.052;2023-12-14T15:25:43;7.90;99.90
11848;DHT22;5983;49.966;8.052;2023-12-14T15:28:11;7.80;99.90
11848;DHT22;5983;49.966;8.052;2023-12-14T15:30:38;7.80;99.90
11848;DHT22;5983;49.966;8.052;2023-12-14T15:33:06;7.80;99.90
11848;DHT22;5983;49.966;8.052;2023-12-14T15:35:32;7.80;99.90
11848;DHT22;5983;49.966;8.052;2023-12-14T15:37:59;7.70;99.90
11848;DHT22;5983;49.966;8.052;2023-12-14T15:40:26;7.70;99.90
11848;DHT22;5983;49.966;8.052;2023-12-14T15:42:54;7.70;99.90
11848;DHT22;5983;49.966;8.052;2023-12-14T15:45:22;7.70;99.90
11848;DHT22;5983;49.966;8.052;2023-12-14T15:47:49;7.60;99.90
11848;DHT22;5983;49.966;8.052;2023-12-14T15:50:16;7.60;99.90
11848;DHT22;5983;49.966;8.052;2023-12-14T15:52:42;7.60;99.90
11848;DHT22;5983;49.966;8.052;2023-12-14T15:55:09;7.60;99.90
11848;DHT22;5983;49.966;8.052;2023-12-14T15:57:36;7.50;99.90
11848;DHT22;5983;49.966;8.052;2023-12-14T16:00:03;7.50;99.90
11848;DHT22;5983;49.966;8.052;2023-12-14T16:02:32;7.50;99.90
11848;DHT22;5983;49.966;8.052;2023-12-14T16:04:59;7.50;99.90